Time;durP1;ratioP1;P1;durP2;ratioP2;P2;SDS_P1;SDS_P2;PMS_P1;PMS_P2;Temp;Humidity;BMP_temperature;BMP_pressure;BME280_temperature;BME280_humidity;BME280_pressure;Samples;Min_cycle;Max_cycle;Signal;HPM_P1;HPM_P2
2023/06/01 00:02:27;;;;;;;2.97;2.78;;;25.10;52.30;;;;;;5055134;28;20498;-68
2023/06/01 00:04:55;;;;;;;2.88;2.67;;;25.10;52.30;;;;;;5055053;28;20077;-68
2023/06/01 00:07:23;;;;;;;2.83;2.60;;;25.10;52.30;;;;;;5054817;28;20045;-69
2023/06/01 00:09:51;;;;;;;2.88;2.65;;;25.10;52.30;;;;;;5063053;28;20554;-68
2023/06/01 00:12:18;;;;;;;2.67;2.47;;;25.10;52.30;;;;;;5074177;28;20122;-69
2023/06/01 00:14:45;;;;;;;2.75;2.28;;;25.10;52.30;;;;;;5061690;28;20052;-68
2023/06/01 00:17:12;;;;;;;2.60;2.40;;;25.10;52.30;;;;;;5064954;28;20076;-68
2023/06/01 00:19:39;;;;;;;3.78;2.88;;;25.10;52.30;;;;;;5073060;28;20041;-68
2023/06/01 00:22:10;;;;;;;3.03;2.63;;;25.10;52.30;;;;;;5073114;28;20086;-68
2023/06/01 00:24:37;;;;;;;2.75;2.33;;;25.10;52.30;;;;;;5074883;28;20080;-68
2023/06/01 00:27:05;;;;;;;3.10;2.80;;;25.10;52.90;;;;;;5074290;28;20080;-68
2023/06/01 00:29:32;;;;;;;3.00;2.60;;;25.10;52.30;;;;;;5075626;28;20045;-68
2023/06/01 00:32:00;;;;;;;4.28;2.60;;;25.10;52.40;;;;;;5074282;28;20058;-69
2023/06/01 00:34:27;;;;;;;2.70;2.50;;;25.00;52.30;;;;;;5075506;28;20076;-68
2023/06/01 00:36:54;;;;;;;2.45;2.33;;;25.00;52.30;;;;;;5073341;28;20098;-69
2023/06/01 00:39:21;;;;;;;4.00;2.60;;;25.10;52.40;;;;;;5074007;28;20515;-69
2023/06/01 00:41:48;;;;;;;2.70;2.50;;;25.00;52.30;;;;;;5069167;28;20052;-69
2023/06/01 00:44:15;;;;;;;2.72;2.53;;;25.00;52.30;;;;;;5054455;28;20539;-68
2023/06/01 00:46:42;;;;;;;2.65;2.45;;;25.00;52.30;;;;;;5054706;28;20041;-69
2023/06/01 00:49:10;;;;;;;2.65;2.45;;;25.00;52.30;;;;;;5054287;28;20084;-69
2023/06/01 00:51:37;;;;;;;2.22;2.13;;;25.10;52.40;;;;;;5054297;28;20475;-72
2023/06/01 00:54:04;;;;;;;2.50;2.30;;;25.00;52.40;;;;;;5053794;28;20045;-69
2023/06/01 00:56:33;;;;;;;3.00;2.80;;;25.00;52.40;;;;;;5053450;28;20390;-69
2023/06/01 00:59:00;;;;;;;3.33;2.80;;;25.00;52.40;;;;;;5055014;28;20041;-69
2023/06/01 01:01:27;;;;;;;3.05;2.42;;;25.00;52.40;;;;;;5054145;28;20099;-68
2023/06/01 01:03:59;;;;;;;3.70;2.35;;;25.00;52.40;;;;;;5054762;28;20076;-71
2023/06/01 01:06:41;;;;;;;2.60;2.30;;;25.00;52.90;;;;;;5054324;28;20052;-70
2023/06/01 01:09:32;;;;;;;2.88;2.45;;;25.00;52.40;;;;;;5054601;28;20049;-70
2023/06/01 01:12:03;;;;;;;2.72;2.45;;;25.00;52.40;;;;;;5054435;28;20052;-69
2023/06/01 01:14:43;;;;;;;2.70;2.50;;;25.00;52.40;;;;;;5054374;28;20041;-70
2023/06/01 01:17:24;;;;;;;2.72;2.53;;;25.00;52.40;;;;;;5054203;28;20094;-69
2023/06/01 01:20:15;;;;;;;2.75;2.22;;;25.00;52.50;;;;;;5053770;28;20544;-69
2023/06/01 01:22:57;;;;;;;2.72;2.53;;;25.00;52.50;;;;;;5053627;28;20056;-71
2023/06/01 01:25:55;;;;;;;2.50;2.30;;;25.00;52.40;;;;;;5054300;28;20157;-69
2023/06/01 01:28:49;;;;;;;4.38;2.45;;;25.00;52.50;;;;;;5054234;28;20087;-70
2023/06/01 01:31:20;;;;;;;3.03;2.38;;;24.90;53.00;;;;;;5053542;28;20588;-71
2023/06/01 01:33:51;;;;;;;2.47;2.28;;;25.00;52.50;;;;;;5054177;28;20057;-69
2023/06/01 01:36:18;;;;;;;2.95;2.70;;;24.90;52.50;;;;;;5053309;28;20558;-69
2023/06/01 01:38:46;;;;;;;2.83;2.55;;;24.90;52.50;;;;;;5054415;28;20052;-70
2023/06/01 01:41:14;;;;;;;2.85;2.60;;;24.90;52.50;;;;;;5053993;28;20076;-69
2023/06/01 01:43:42;;;;;;;2.40;2.20;;;24.90;52.50;;;;;;5053104;28;20049;-70
2023/06/01 01:46:28;;;;;;;2.53;2.33;;;24.90;52.50;;;;;;5053480;28;20080;-69
2023/06/01 01:49:18;;;;;;;4.50;2.78;;;24.90;52.60;;;;;;5073482;28;20044;-70
2023/06/01 01:52:06;;;;;;;2.92;2.50;;;24.90;52.60;;;;;;5071941;28;20045;-71
2023/06/01 01:54:37;;;;;;;3.38;2.50;;;24.90;52.60;;;;;;5073746;28;20053;-68
2023/06/01 01:57:07;;;;;;;3.90;2.60;;;24.90;52.60;;;;;;5073184;28;20106;-68
2023/06/01 01:59:36;;;;;;;3.15;2.50;;;24.90;52.60;;;;;;5073430;28;20049;-69
2023/06/01 02:02:04;;;;;;;3.33;2.57;;;24.90;52.60;;;;;;5073231;28;20545;-68
2023/06/01 02:04:32;;;;;;;2.20;2.03;;;24.80;52.60;;;;;;5073339;28;20682;-68
2023/06/01 02:06:59;;;;;;;2.53;2.33;;;24.80;52.60;;;;;;5073094;28;20048;-68
2023/06/01 02:09:26;;;;;;;2.45;2.25;;;24.80;52.70;;;;;;5073427;28;20049;-68
2023/06/01 02:11:53;;;;;;;2.53;2.33;;;24.80;52.70;;;;;;5073185;28;20088;-68
2023/06/01 02:14:20;;;;;;;2.88;2.65;;;24.80;52.70;;;;;;5073456;28;20049;-68
2023/06/01 02:16:47;;;;;;;2.45;2.25;;;24.80;52.70;;;;;;5072932;28;20454;-68
2023/06/01 02:19:15;;;;;;;3.95;2.50;;;24.80;52.70;;;;;;5073231;28;20047;-68
2023/06/01 02:21:43;;;;;;;3.33;2.17;;;24.80;52.70;;;;;;5073452;28;20048;-68
2023/06/01 02:24:10;;;;;;;2.35;2.15;;;24.80;52.80;;;;;;5073165;28;20083;-68
2023/06/01 02:26:37;;;;;;;2.15;2.05;;;24.80;52.80;;;;;;5073243;28;20091;-68
2023/06/01 02:29:07;;;;;;;3.10;2.50;;;24.80;52.80;;;;;;5072840;28;20044;-68
2023/06/01 02:31:35;;;;;;;2.60;2.40;;;24.80;52.80;;;;;;5073480;28;20435;-68
2023/06/01 02:34:03;;;;;;;2.58;2.00;;;24.80;52.80;;;;;;5072829;28;20595;-68
2023/06/01 02:36:31;;;;;;;2.85;2.05;;;24.80;52.80;;;;;;5072822;28;20048;-68
2023/06/01 02:38:59;;;;;;;2.50;2.30;;;24.80;52.90;;;;;;5072562;28;20045;-68
2023/06/01 02:41:26;;;;;;;2.80;2.60;;;24.70;52.80;;;;;;5073396;28;20110;-68
2023/06/01 02:43:53;;;;;;;2.40;2.20;;;24.80;52.80;;;;;;5073151;28;20515;-68
2023/06/01 02:46:20;;;;;;;2.72;2.38;;;24.70;52.80;;;;;;5072229;28;20408;-68
2023/06/01 02:48:48;;;;;;;2.50;2.30;;;24.70;52.80;;;;;;5057019;28;20063;-68
2023/06/01 02:51:15;;;;;;;2.75;2.58;;;24.70;52.80;;;;;;5052777;28;20049;-68
2023/06/01 02:53:42;;;;;;;2.55;2.35;;;24.70;52.80;;;;;;5053188;28;20477;-69
2023/06/01 02:56:09;;;;;;;2.30;2.10;;;24.70;52.90;;;;;;5052854;28;20056;-68
2023/06/01 02:58:37;;;;;;;2.83;2.55;;;24.70;52.90;;;;;;5058120;28;20060;-68
2023/06/01 03:01:04;;;;;;;2.50;2.30;;;24.70;52.90;;;;;;5058531;28;20074;-68
2023/06/01 03:03:32;;;;;;;3.22;2.72;;;24.70;52.90;;;;;;5071928;28;20051;-68
2023/06/01 03:05:59;;;;;;;2.75;2.55;;;24.70;52.90;;;;;;5072162;28;20045;-68
2023/06/01 03:08:26;;;;;;;2.67;2.30;;;24.70;52.90;;;;;;5060647;28;20103;-68
2023/06/01 03:10:53;;;;;;;2.88;2.67;;;24.70;52.90;;;;;;5052354;28;20090;-68
2023/06/01 03:13:20;;;;;;;2.55;2.35;;;24.70;52.90;;;;;;5055174;28;20135;-68
2023/06/01 03:15:48;;;;;;;2.08;1.98;;;24.70;52.90;;;;;;5054830;28;20083;-68
2023/06/01 03:18:15;;;;;;;2.40;2.20;;;24.70;52.80;;;;;;5056691;28;20048;-68
2023/06/01 03:20:42;;;;;;;2.63;2.42;;;24.70;52.80;;;;;;5056356;28;20048;-68
2023/06/01 03:23:10;;;;;;;2.47;2.28;;;24.70;52.80;;;;;;5055207;28;20490;-68
2023/06/01 03:25:37;;;;;;;2.10;1.90;;;24.70;52.80;;;;;;5056307;28;20076;-68
2023/06/01 03:28:05;;;;;;;2.03;1.92;;;24.70;52.80;;;;;;5060824;28;20045;-68
2023/06/01 03:30:32;;;;;;;3.60;2.58;;;24.70;52.70;;;;;;5074623;28;20056;-68
2023/06/01 03:32:59;;;;;;;2.58;2.38;;;24.80;52.70;;;;;;5069198;28;20095;-68
2023/06/01 03:35:27;;;;;;;1.90;1.80;;;24.80;52.60;;;;;;5054906;28;20045;-68
2023/06/01 03:37:54;;;;;;;3.30;2.40;;;24.80;52.60;;;;;;5055556;28;20099;-68
2023/06/01 03:40:21;;;;;;;3.47;2.42;;;24.80;52.60;;;;;;5055391;28;20073;-68
2023/06/01 03:42:48;;;;;;;2.85;1.80;;;24.80;52.60;;;;;;5055884;28;20098;-68
2023/06/01 03:45:16;;;;;;;2.45;2.10;;;24.80;52.50;;;;;;5073887;28;20059;-68
2023/06/01 03:47:43;;;;;;;2.47;2.28;;;24.80;52.50;;;;;;5072598;28;20071;-68
2023/06/01 03:50:11;;;;;;;2.88;2.35;;;24.80;52.40;;;;;;5078397;28;20172;-68
2023/06/01 03:52:39;;;;;;;2.22;2.03;;;24.80;52.40;;;;;;5067428;28;20066;-68
2023/06/01 03:55:10;;;;;;;2.10;2.00;;;24.90;52.40;;;;;;5074463;28;20044;-68
2023/06/01 03:57:38;;;;;;;4.28;2.58;;;24.80;52.30;;;;;;5074618;28;20078;-68
2023/06/01 04:00:19;;;;;;;2.47;2.13;;;24.90;52.30;;;;;;5058017;28;20049;-68
2023/06/01 04:02:55;;;;;;;2.60;2.50;;;24.90;52.30;;;;;;5061913;28;20065;-68
2023/06/01 04:05:23;;;;;;;2.45;2.25;;;24.90;52.30;;;;;;5075487;28;20049;-68
2023/06/01 04:07:52;;;;;;;2.47;2.28;;;24.90;52.20;;;;;;5074776;28;20098;-68
2023/06/01 04:10:19;;;;;;;2.30;2.10;;;24.90;52.20;;;;;;5075742;28;20044;-68
2023/06/01 04:12:51;;;;;;;2.38;2.10;;;24.90;52.20;;;;;;5073148;28;20053;-68
2023/06/01 04:15:20;;;;;;;2.20;2.10;;;24.90;52.10;;;;;;5074945;28;20170;-68
2023/06/01 04:17:47;;;;;;;2.13;2.03;;;24.90;52.10;;;;;;5073092;28;20135;-68
2023/06/01 04:20:16;;;;;;;3.30;2.75;;;25.00;52.00;;;;;;5055236;28;20056;-68
2023/06/01 04:22:45;;;;;;;2.55;2.35;;;25.00;52.00;;;;;;5070060;28;20044;-68
2023/06/01 04:25:17;;;;;;;2.63;2.42;;;25.00;52.00;;;;;;5069944;28;20037;-68
2023/06/01 04:27:47;;;;;;;2.30;2.10;;;25.00;51.90;;;;;;5073552;28;20044;-68
2023/06/01 04:30:16;;;;;;;2.55;2.35;;;25.00;51.90;;;;;;5073799;28;20041;-68
2023/06/01 04:32:45;;;;;;;2.27;2.10;;;25.00;51.80;;;;;;5074830;28;20052;-68
2023/06/01 04:35:13;;;;;;;3.05;2.33;;;25.10;51.80;;;;;;5073994;28;20516;-68
2023/06/01 04:37:42;;;;;;;2.40;2.20;;;25.10;51.70;;;;;;5072128;28;20128;-68
2023/06/01 04:40:12;;;;;;;2.30;2.10;;;25.10;51.70;;;;;;5071867;28;20130;-68
2023/06/01 04:42:41;;;;;;;2.05;1.85;;;25.10;51.50;;;;;;5060951;28;20088;-68
2023/06/01 04:45:10;;;;;;;3.47;2.30;;;25.10;51.40;;;;;;5055128;28;20469;-69
2023/06/01 04:47:39;;;;;;;2.20;2.10;;;25.20;51.40;;;;;;5065496;28;20139;-68
2023/06/01 04:50:11;;;;;;;2.50;2.30;;;25.10;51.30;;;;;;5073015;28;20041;-69
2023/06/01 04:52:39;;;;;;;2.45;2.17;;;25.20;51.30;;;;;;5075004;28;20084;-69
2023/06/01 04:55:07;;;;;;;2.40;2.20;;;25.20;51.20;;;;;;5055231;28;20049;-68
2023/06/01 04:57:35;;;;;;;2.08;1.98;;;25.30;51.20;;;;;;5060651;28;20052;-67
2023/06/01 05:00:06;;;;;;;2.28;2.08;;;25.30;51.10;;;;;;5073425;28;20436;-69
2023/06/01 05:02:34;;;;;;;1.75;1.65;;;25.30;51.00;;;;;;5072460;28;20501;-68
2023/06/01 05:05:01;;;;;;;2.72;2.53;;;25.30;51.00;;;;;;5064804;28;20044;-68
2023/06/01 05:07:28;;;;;;;3.28;2.53;;;25.40;51.00;;;;;;5071795;28;20131;-68
2023/06/01 05:09:55;;;;;;;2.30;2.17;;;25.40;51.50;;;;;;5068244;28;20461;-73
2023/06/01 05:12:22;;;;;;;2.85;2.65;;;25.40;50.90;;;;;;5071052;28;20079;-69
2023/06/01 05:14:50;;;;;;;2.92;2.35;;;25.40;51.00;;;;;;5073163;28;20123;-69
2023/06/01 05:17:17;;;;;;;2.53;2.33;;;25.40;51.00;;;;;;5071958;28;20110;-71
2023/06/01 05:19:45;;;;;;;2.75;2.17;;;25.50;51.30;;;;;;5069814;28;20063;-71
2023/06/01 05:22:12;;;;;;;2.80;1.90;;;25.50;51.30;;;;;;5068682;28;20451;-70
2023/06/01 05:24:39;;;;;;;4.75;2.38;;;25.50;51.20;;;;;;5068110;28;20037;-69
2023/06/01 05:27:07;;;;;;;2.65;2.42;;;25.50;51.10;;;;;;5067182;28;20397;-71
2023/06/01 05:29:34;;;;;;;2.60;2.35;;;25.50;51.10;;;;;;5066226;28;20048;-72
2023/06/01 05:32:01;;;;;;;4.10;2.70;;;25.60;51.30;;;;;;5072556;28;20501;-72
2023/06/01 05:34:29;;;;;;;3.70;2.95;;;25.60;51.50;;;;;;5062225;28;20447;-72
2023/06/01 05:36:56;;;;;;;4.25;2.92;;;25.60;51.70;;;;;;5065113;28;20053;-71
2023/06/01 05:39:27;;;;;;;2.85;2.65;;;25.50;51.30;;;;;;5064528;28;20067;-72
2023/06/01 05:41:55;;;;;;;3.90;3.00;;;25.60;51.10;;;;;;5062224;28;20051;-69
2023/06/01 05:44:22;;;;;;;2.85;2.65;;;25.60;50.80;;;;;;5065176;28;20078;-69
2023/06/01 05:46:51;;;;;;;4.13;2.75;;;25.60;50.70;;;;;;5063190;28;20079;-69
2023/06/01 05:49:21;;;;;;;4.88;3.03;;;25.70;50.70;;;;;;5066520;28;20558;-70
2023/06/01 05:51:48;;;;;;;6.72;2.90;;;25.60;50.50;;;;;;5064942;28;20869;-69
2023/06/01 05:54:18;;;;;;;;;;;25.70;50.90;;;;;;5042616;28;20452;-67
2023/06/01 05:56:45;;;;;;;3.60;3.05;;;25.70;50.80;;;;;;5060143;28;20377;-68
2023/06/01 05:59:12;;;;;;;6.10;4.30;;;25.70;50.70;;;;;;5064415;28;20090;-69
2023/06/01 06:01:40;;;;;;;4.93;4.00;;;25.70;50.90;;;;;;5065380;28;20037;-67
2023/06/01 06:04:07;;;;;;;5.43;3.88;;;25.70;51.00;;;;;;5064762;28;20496;-67
2023/06/01 06:06:35;;;;;;;6.95;3.45;;;25.70;50.60;;;;;;5065126;28;20143;-69
2023/06/01 06:09:04;;;;;;;4.53;3.92;;;25.70;50.60;;;;;;5062360;28;20048;-71
2023/06/01 06:11:31;;;;;;;10.35;4.30;;;25.70;51.00;;;;;;5062655;28;20048;-72
2023/06/01 06:13:59;;;;;;;5.38;3.47;;;25.70;51.20;;;;;;5063171;28;20462;-72
2023/06/01 06:16:26;;;;;;;6.78;3.63;;;25.70;51.30;;;;;;5058772;28;20041;-72
2023/06/01 06:18:53;;;;;;;5.75;3.83;;;25.70;51.30;;;;;;5060905;28;20139;-69
2023/06/01 06:21:20;;;;;;;8.05;4.47;;;25.80;51.40;;;;;;5066545;28;20044;-69
2023/06/01 06:23:49;;;;;;;8.80;5.22;;;25.80;51.50;;;;;;5060332;28;20131;-72
2023/06/01 06:26:16;;;;;;;8.30;4.80;;;25.70;51.40;;;;;;5060902;28;20041;-72
2023/06/01 06:28:43;;;;;;;5.75;4.57;;;25.70;51.50;;;;;;5059688;28;20049;-68
2023/06/01 06:31:10;;;;;;;5.38;3.35;;;25.70;51.70;;;;;;5060533;28;20055;-69
2023/06/01 06:33:38;;;;;;;6.22;4.22;;;25.60;51.70;;;;;;5061239;28;20109;-68
2023/06/01 06:36:05;;;;;;;7.85;5.25;;;25.60;51.70;;;;;;5062998;28;20477;-72
2023/06/01 06:38:33;;;;;;;8.98;5.50;;;25.70;51.90;;;;;;5059262;28;20052;-71
2023/06/01 06:41:00;;;;;;;9.65;5.13;;;25.70;51.90;;;;;;5064090;28;20057;-72
2023/06/01 06:43:28;;;;;;;6.13;4.20;;;25.70;52.20;;;;;;5063865;28;20484;-69
2023/06/01 06:45:55;;;;;;;8.75;5.30;;;25.60;52.00;;;;;;5061361;28;20052;-74
2023/06/01 06:48:23;;;;;;;5.70;4.60;;;25.70;51.50;;;;;;5060076;28;20056;-73
2023/06/01 06:50:51;;;;;;;6.53;5.47;;;25.70;51.30;;;;;;5065051;28;20149;-69
2023/06/01 06:53:18;;;;;;;8.60;4.90;;;25.70;51.50;;;;;;5064460;28;20049;-69
2023/06/01 06:55:46;;;;;;;6.88;4.78;;;25.70;51.50;;;;;;5065271;28;20511;-71
2023/06/01 06:58:14;;;;;;;6.53;4.90;;;25.80;51.40;;;;;;5065421;28;20771;-69
2023/06/01 07:00:42;;;;;;;8.60;4.25;;;25.80;51.40;;;;;;5061184;28;20051;-67
2023/06/01 07:03:09;;;;;;;12.07;4.65;;;25.90;51.30;;;;;;5065760;28;20045;-69
2023/06/01 07:05:37;;;;;;;7.78;5.10;;;25.90;51.10;;;;;;5063687;28;20051;-70
2023/06/01 07:08:04;;;;;;;7.00;5.07;;;25.90;50.90;;;;;;5063064;28;20037;-68
2023/06/01 07:10:31;;;;;;;6.13;4.65;;;26.00;50.70;;;;;;5065771;28;20555;-69
2023/06/01 07:12:59;;;;;;;7.47;4.50;;;26.00;50.50;;;;;;5064153;28;20059;-72
2023/06/01 07:15:26;;;;;;;5.38;4.03;;;26.10;50.60;;;;;;5065231;28;20087;-70
2023/06/01 07:17:54;;;;;;;8.02;3.88;;;26.10;50.40;;;;;;5063274;28;20056;-65
2023/06/01 07:20:21;;;;;;;9.95;4.13;;;26.10;50.00;;;;;;5064105;28;20357;-68
2023/06/01 07:22:51;;;;;;;7.55;4.32;;;26.20;49.70;;;;;;5061728;28;20086;-68
2023/06/01 07:25:18;;;;;;;8.20;4.05;;;26.20;49.50;;;;;;5061513;28;20103;-68
2023/06/01 07:27:47;;;;;;;8.43;4.30;;;26.30;49.40;;;;;;5064780;28;20055;-69
2023/06/01 07:30:15;;;;;;;5.20;4.03;;;26.30;49.40;;;;;;5044813;28;20051;-69
2023/06/01 07:32:42;;;;;;;6.85;4.20;;;26.30;49.30;;;;;;5060968;28;20102;-74
2023/06/01 07:35:10;;;;;;;10.65;5.03;;;26.30;49.30;;;;;;5060475;28;20048;-71
2023/06/01 07:37:39;;;;;;;10.38;4.72;;;26.40;49.40;;;;;;5063503;28;20049;-72
2023/06/01 07:40:07;;;;;;;9.00;4.90;;;26.40;49.40;;;;;;5055656;28;20084;-69
2023/06/01 07:42:35;;;;;;;7.85;5.05;;;26.50;49.40;;;;;;5064146;28;20041;-70
2023/06/01 07:45:02;;;;;;;8.15;4.55;;;26.50;48.80;;;;;;5062042;28;20059;-71
2023/06/01 07:47:29;;;;;;;9.07;4.07;;;26.50;48.60;;;;;;5058289;28;20052;-72
2023/06/01 07:49:57;;;;;;;8.77;4.22;;;26.50;48.10;;;;;;5059119;28;20512;-70
2023/06/01 07:52:24;;;;;;;8.50;4.35;;;26.50;47.90;;;;;;5059429;28;20059;-68
2023/06/01 07:54:52;;;;;;;5.13;3.88;;;26.50;48.00;;;;;;5059676;28;20040;-76
2023/06/01 07:57:19;;;;;;;6.22;3.72;;;26.60;48.00;;;;;;5066533;28;20048;-72
2023/06/01 07:59:46;;;;;;;8.75;4.32;;;26.60;48.00;;;;;;5058921;28;20052;-71
2023/06/01 08:02:14;;;;;;;4.10;3.70;;;26.60;48.50;;;;;;5067395;28;20075;-70
2023/06/01 08:04:44;;;;;;;6.15;3.75;;;26.60;47.80;;;;;;5067083;28;20049;-69
2023/06/01 08:07:13;;;;;;;6.30;4.25;;;26.70;47.40;;;;;;5067979;28;20048;-73
2023/06/01 08:09:42;;;;;;;11.25;3.63;;;26.70;47.30;;;;;;5070056;28;20131;-68
2023/06/01 08:12:11;;;;;;;8.93;3.90;;;26.70;47.10;;;;;;5065847;28;20511;-72
2023/06/01 08:14:38;;;;;;;5.25;4.10;;;26.70;46.90;;;;;;5067896;28;20052;-74
2023/06/01 08:17:06;;;;;;;7.80;3.63;;;26.70;47.10;;;;;;5067001;28;20049;-72
2023/06/01 08:19:35;;;;;;;5.13;3.75;;;26.70;47.60;;;;;;5065314;28;20385;-70
2023/06/01 08:22:04;;;;;;;5.40;3.45;;;26.70;47.70;;;;;;5066266;28;20053;-70
2023/06/01 08:24:35;;;;;;;9.88;3.60;;;26.80;47.80;;;;;;5063729;28;20044;-75
2023/06/01 08:27:05;;;;;;;5.65;3.33;;;26.80;47.60;;;;;;5068236;28;20072;-68
2023/06/01 08:29:32;;;;;;;6.13;3.90;;;26.80;47.50;;;;;;5064533;28;20097;-69
2023/06/01 08:32:10;;;;;;;7.68;3.67;;;26.80;47.20;;;;;;5064412;28;20056;-68
2023/06/01 08:34:37;;;;;;;4.32;3.92;;;26.90;47.20;;;;;;5065710;28;20086;-68
2023/06/01 08:37:04;;;;;;;9.80;4.07;;;26.80;47.30;;;;;;5067316;28;20052;-65
2023/06/01 08:39:32;;;;;;;6.28;4.10;;;26.80;47.70;;;;;;5062297;28;20053;-67
2023/06/01 08:42:29;;;;;;;5.38;3.97;;;26.80;47.30;;;;;;5067049;28;20048;-67
2023/06/01 08:44:58;;;;;;;7.85;4.57;;;26.90;47.60;;;;;;5062341;28;20136;-69
2023/06/01 08:47:26;;;;;;;5.55;3.80;;;26.90;47.60;;;;;;5065976;28;20378;-68
2023/06/01 08:49:55;;;;;;;6.35;3.70;;;26.90;47.60;;;;;;5065315;28;20052;-69
2023/06/01 08:52:28;;;;;;;9.30;3.65;;;26.90;47.50;;;;;;5064417;28;20048;-68
2023/06/01 08:54:57;;;;;;;4.07;3.67;;;26.90;47.40;;;;;;5068132;28;20090;-67
2023/06/01 08:57:25;;;;;;;6.18;3.53;;;26.90;47.60;;;;;;5064166;28;20052;-68
2023/06/01 08:59:52;;;;;;;4.72;4.03;;;26.60;43.90;;;;;;5066290;28;20075;-69
2023/06/01 09:02:22;;;;;;;4.80;3.40;;;26.00;45.00;;;;;;5065698;28;20065;-70
2023/06/01 09:04:50;;;;;;;5.47;3.13;;;25.40;46.50;;;;;;5063926;28;20060;-70
2023/06/01 09:07:18;;;;;;;8.52;3.67;;;24.80;47.50;;;;;;5065690;28;20045;-68
2023/06/01 09:09:45;;;;;;;4.60;3.47;;;24.30;48.90;;;;;;5063493;28;20044;-68
2023/06/01 09:12:23;;;;;;;14.10;4.30;;;23.90;49.50;;;;;;5060628;28;20085;-68
2023/06/01 09:15:11;;;;;;;6.05;3.30;;;23.50;50.50;;;;;;5061782;28;20056;-69
2023/06/01 09:17:43;;;;;;;4.25;3.85;;;23.20;51.40;;;;;;5061780;28;20063;-70
2023/06/01 09:20:21;;;;;;;4.50;3.55;;;22.90;51.80;;;;;;5068476;28;20045;-69
2023/06/01 09:22:49;;;;;;;5.55;3.58;;;22.70;52.30;;;;;;5065249;28;20045;-68
2023/06/01 09:25:22;;;;;;;8.73;3.75;;;22.50;52.60;;;;;;5065056;28;20049;-68
2023/06/01 09:27:51;;;;;;;4.15;3.55;;;22.40;53.20;;;;;;5064185;28;20045;-67
2023/06/01 09:30:21;;;;;;;6.60;4.10;;;22.20;53.70;;;;;;5066050;28;20049;-66
2023/06/01 09:32:50;;;;;;;4.68;3.80;;;22.10;54.00;;;;;;5066428;28;20072;-67
2023/06/01 09:35:41;;;;;;;5.65;3.65;;;22.10;54.00;;;;;;5062895;28;20051;-70
2023/06/01 09:38:09;;;;;;;5.40;3.22;;;22.00;53.90;;;;;;5067494;28;20048;-66
2023/06/01 09:40:38;;;;;;;5.03;3.40;;;21.90;54.50;;;;;;5064431;28;20048;-67
2023/06/01 09:43:20;;;;;;;5.18;3.88;;;22.00;55.50;;;;;;5068475;28;20512;-68
2023/06/01 09:46:06;;;;;;;4.22;3.50;;;22.50;55.30;;;;;;5063776;28;20050;-68
2023/06/01 09:48:34;;;;;;;5.85;3.83;;;23.00;54.20;;;;;;5067385;28;20048;-68
2023/06/01 09:51:01;;;;;;;6.10;3.45;;;23.50;53.20;;;;;;5064347;28;20523;-69
2023/06/01 09:53:43;;;;;;;4.78;3.33;;;23.90;52.30;;;;;;5060634;28;20045;-68
2023/06/01 09:56:11;;;;;;;3.83;3.20;;;24.30;51.40;;;;;;5069520;28;20045;-68
2023/06/01 09:58:40;;;;;;;4.82;3.25;;;24.60;50.60;;;;;;5061593;28;20159;-69
2023/06/01 10:01:08;;;;;;;5.10;3.70;;;24.90;49.90;;;;;;5064417;28;20040;-72
2023/06/01 10:03:41;;;;;;;3.78;3.25;;;25.10;49.20;;;;;;5062298;28;20044;-68
2023/06/01 10:06:12;;;;;;;4.13;2.90;;;25.40;48.90;;;;;;5062508;28;20044;-70
2023/06/01 10:08:42;;;;;;;5.65;3.20;;;25.60;48.60;;;;;;5065100;28;20044;-70
2023/06/01 10:11:09;;;;;;;4.05;3.10;;;25.70;48.20;;;;;;5069862;28;20737;-70
2023/06/01 10:13:37;;;;;;;4.35;3.13;;;25.90;48.00;;;;;;5064084;28;20522;-71
2023/06/01 10:16:04;;;;;;;3.35;2.75;;;26.00;47.70;;;;;;5066201;28;20409;-71
2023/06/01 10:18:33;;;;;;;6.28;3.28;;;26.10;47.50;;;;;;5067434;28;20399;-70
2023/06/01 10:21:02;;;;;;;3.63;2.45;;;26.20;47.40;;;;;;5066798;28;20140;-67
2023/06/01 10:23:30;;;;;;;4.38;2.72;;;26.30;47.30;;;;;;5066331;28;20044;-67
2023/06/01 10:26:05;;;;;;;3.33;3.03;;;26.40;47.20;;;;;;5067533;28;20476;-67
2023/06/01 10:28:35;;;;;;;5.22;3.05;;;26.50;47.00;;;;;;5065776;28;20151;-67
2023/06/01 10:31:42;;;;;;;3.88;3.15;;;26.50;46.70;;;;;;5062799;28;20189;-68
2023/06/01 10:34:12;;;;;;;3.28;2.90;;;26.60;46.60;;;;;;5064848;28;20057;-69
2023/06/01 10:37:10;;;;;;;4.72;3.45;;;26.60;46.50;;;;;;5064908;28;20052;-69
2023/06/01 10:39:38;;;;;;;4.38;3.10;;;26.70;46.80;;;;;;5064581;28;20094;-67
2023/06/01 10:42:36;;;;;;;4.32;3.40;;;26.70;46.70;;;;;;5064002;28;20131;-68
2023/06/01 10:45:06;;;;;;;2.60;2.40;;;26.70;46.50;;;;;;5051765;28;20060;-69
2023/06/01 10:47:50;;;;;;;4.53;3.30;;;26.70;46.40;;;;;;5064334;28;20147;-69
2023/06/01 10:50:18;;;;;;;4.70;2.85;;;26.70;46.50;;;;;;5064419;28;20132;-67
2023/06/01 10:52:45;;;;;;;6.88;3.20;;;26.80;46.40;;;;;;5058694;28;20100;-66
2023/06/01 10:55:21;;;;;;;3.40;2.80;;;26.80;46.50;;;;;;5064826;28;20578;-68
2023/06/01 10:58:12;;;;;;;4.05;3.17;;;26.90;46.60;;;;;;5063699;28;20140;-70
2023/06/01 11:00:40;;;;;;;3.30;2.42;;;26.90;46.40;;;;;;5057732;28;20100;-69
2023/06/01 11:03:07;;;;;;;7.10;2.97;;;26.90;46.70;;;;;;5059377;28;20072;-67
2023/06/01 11:05:50;;;;;;;8.52;2.80;;;27.00;46.20;;;;;;5058278;28;20083;-67
2023/06/01 11:08:55;;;;;;;5.45;3.10;;;27.00;46.30;;;;;;5064131;28;20124;-66
2023/06/01 11:11:57;;;;;;;4.53;3.05;;;27.10;46.30;;;;;;5055632;28;20060;-68
2023/06/01 11:14:30;;;;;;;3.80;2.38;;;27.10;46.70;;;;;;5061660;28;20041;-68
2023/06/01 11:17:26;;;;;;;3.03;2.67;;;27.20;45.90;;;;;;5063926;28;20060;-69
2023/06/01 11:20:05;;;;;;;4.88;2.58;;;27.20;45.80;;;;;;5063885;28;20051;-68
2023/06/01 11:22:37;;;;;;;2.92;2.58;;;27.20;45.70;;;;;;5062731;28;20515;-69
2023/06/01 11:25:07;;;;;;;5.10;2.90;;;27.20;45.60;;;;;;5062134;28;20071;-67
2023/06/01 11:27:36;;;;;;;2.88;2.58;;;27.30;45.50;;;;;;5066478;28;20086;-68
2023/06/01 11:30:04;;;;;;;6.05;3.03;;;27.30;45.40;;;;;;5065610;28;20071;-66
2023/06/01 11:32:36;;;;;;;3.45;2.60;;;27.30;45.40;;;;;;5061667;28;20105;-67
2023/06/01 11:35:16;;;;;;;3.00;2.70;;;27.40;45.40;;;;;;5065969;28;20052;-69
2023/06/01 11:37:47;;;;;;;5.70;3.10;;;27.40;45.30;;;;;;5071421;28;20131;-71
2023/06/01 11:40:14;;;;;;;5.35;2.45;;;27.40;45.70;;;;;;5065242;28;20048;-71
2023/06/01 11:42:41;;;;;;;3.67;2.88;;;27.40;45.20;;;;;;5068936;28;20040;-71
2023/06/01 11:45:16;;;;;;;7.47;3.15;;;27.40;45.10;;;;;;5067968;28;20306;-70
2023/06/01 11:47:45;;;;;;;3.25;2.95;;;27.40;44.90;;;;;;5067558;28;20109;-71
2023/06/01 11:50:26;;;;;;;4.35;2.97;;;27.50;45.00;;;;;;5068000;28;20043;-68
2023/06/01 11:52:54;;;;;;;5.85;2.88;;;27.50;45.00;;;;;;5064110;28;20080;-69
2023/06/01 11:55:22;;;;;;;4.97;2.38;;;27.50;44.90;;;;;;5072563;28;20087;-70
2023/06/01 11:57:50;;;;;;;5.57;2.65;;;27.50;44.50;;;;;;5066755;28;20049;-70
2023/06/01 12:00:18;;;;;;;3.10;2.80;;;27.60;44.50;;;;;;5062432;28;20110;-70
2023/06/01 12:02:45;;;;;;;5.35;2.90;;;27.60;44.50;;;;;;5061695;28;20680;-69
2023/06/01 12:05:14;;;;;;;4.10;3.40;;;27.60;44.30;;;;;;5066894;28;20070;-70
2023/06/01 12:07:50;;;;;;;2.90;2.53;;;27.60;44.50;;;;;;5069511;28;20111;-69
2023/06/01 12:10:19;;;;;;;3.35;2.65;;;27.60;44.40;;;;;;5061653;28;20492;-71
2023/06/01 12:12:47;;;;;;;6.30;2.65;;;27.60;44.20;;;;;;5063655;28;20566;-72
2023/06/01 12:15:16;;;;;;;5.22;2.50;;;27.60;43.90;;;;;;5073077;28;20052;-72
2023/06/01 12:17:55;;;;;;;3.03;2.42;;;27.60;43.90;;;;;;5070797;28;20044;-70
2023/06/01 12:20:30;;;;;;;8.70;2.85;;;27.60;43.80;;;;;;5064541;28;20048;-69
2023/06/01 12:23:03;;;;;;;2.67;2.47;;;27.60;44.10;;;;;;5066064;28;20041;-69
2023/06/01 12:25:33;;;;;;;4.97;2.75;;;27.60;44.20;;;;;;5068229;28;20052;-69
2023/06/01 12:28:07;;;;;;;3.67;2.90;;;27.60;44.00;;;;;;5069735;28;20045;-69
2023/06/01 12:30:34;;;;;;;2.47;2.28;;;27.60;44.00;;;;;;5066301;28;20051;-69
2023/06/01 12:33:04;;;;;;;9.40;2.67;;;27.70;44.10;;;;;;5069994;28;20132;-69
2023/06/01 12:35:32;;;;;;;2.60;2.40;;;27.70;44.10;;;;;;5068783;28;20102;-67
2023/06/01 12:38:07;;;;;;;4.88;2.30;;;27.70;44.10;;;;;;5064753;28;20416;-69
2023/06/01 12:40:35;;;;;;;3.25;2.63;;;27.80;43.80;;;;;;5069880;28;20500;-66
2023/06/01 12:43:04;;;;;;;2.60;2.40;;;27.70;43.60;;;;;;5068837;28;20045;-68
2023/06/01 12:45:41;;;;;;;4.40;2.85;;;27.70;43.70;;;;;;5070794;28;20467;-67
2023/06/01 12:48:29;;;;;;;2.78;2.58;;;27.70;44.00;;;;;;5071107;28;20048;-68
2023/06/01 12:50:56;;;;;;;3.53;2.90;;;27.70;44.10;;;;;;5070363;28;20048;-75
2023/06/01 12:53:23;;;;;;;3.35;3.05;;;27.80;44.20;;;;;;5067854;28;20076;-70
2023/06/01 12:55:50;;;;;;;3.35;2.70;;;27.80;44.40;;;;;;5067090;28;20060;-68
2023/06/01 12:58:18;;;;;;;5.15;3.10;;;27.80;44.60;;;;;;5061797;28;20041;-68
2023/06/01 13:00:45;;;;;;;2.60;2.40;;;27.90;44.40;;;;;;5068826;28;20052;-71
2023/06/01 13:03:15;;;;;;;4.78;2.33;;;27.90;44.50;;;;;;5064462;28;20136;-66
2023/06/01 13:05:45;;;;;;;3.20;2.30;;;27.90;44.60;;;;;;5060548;28;20688;-67